Terminal Aerodrome Forecast
Issued by NWS Cleveland, OH

Home | Current Version | Previous Version | Text Only | Print | Product List | Glossary Off
Versions: 1 2 3 4 5 6 7 8 9 10 11 12 13 14 15 16 17 18 19

000
FTUS41 KCLE 172342
TAFCAK
TAF
KCAK 172342Z 1800/1824 27012KT P6SM OVC035
      TEMPO 1800/1802 -SN BKN025
     FM180800 26005KT P6SM SCT035
     FM182000 18008KT P6SM SCT025 OVC040=

USA.gov is the U.S. government's official web portal to all federal, state and local government web resources and services.